Terminal Aerodrome Forecast
Issued by NWS Newport/Morehead City, NC

Home | Current Version | Previous Version | Text Only | Print | Product List | Glossary On
Versions: 1 2 3 4 5 6 7 8 9 10 11 12 13 14 15 16 17 18 19 20 21
000
FTUS42 KMHX 160200 AAB
TAFEWN
TAF AMD
KEWN 160238Z 1603/1624 33015G25KT 4SM -RA BKN020
     FM160500 35015G25KT P6SM VCSH BKN020
     FM160700 36015G25KT P6SM SKC
     FM161800 02015G20KT P6SM SKC=

USA.gov is the U.S. government's official web portal to all federal, state and local government web resources and services.